createdAt,value
2022-12-03T00:00:12.903Z,99.75
2022-12-03T00:02:18.581Z,108.43
2022-12-03T00:04:23.756Z,116.90
2022-12-03T00:06:34.203Z,113.18
2022-12-03T00:08:38.391Z,116.63
2022-12-03T00:10:42.919Z,112.93
2022-12-03T00:12:47.227Z,114.18
2022-12-03T00:14:51.589Z,106.43
2022-12-03T00:16:56.570Z,107.72
2022-12-03T00:19:00.348Z,113.18
2022-12-03T00:21:04.700Z,111.35
2022-12-03T00:23:09.679Z,123.95
2022-12-03T00:25:13.969Z,115.25
2022-12-03T00:27:18.222Z,119.18
2022-12-03T00:29:23.239Z,113.32
2022-12-03T00:31:28.165Z,111.05
2022-12-03T00:33:39.689Z,121.45
2022-12-03T00:35:44.490Z,122.30
2022-12-03T00:37:48.677Z,125.70
2022-12-03T00:39:52.827Z,119.22
2022-12-03T00:41:57.015Z,134.18
2022-12-03T00:44:01.222Z,127.65
2022-12-03T00:46:05.467Z,138.20
2022-12-03T00:48:09.714Z,126.95
2022-12-03T00:50:14.213Z,135.93
2022-12-03T00:52:17.908Z,124.75
2022-12-03T00:54:25.649Z,131.75
2022-12-03T00:58:38.014Z,125.88
2022-12-03T01:00:42.252Z,154.40
2022-12-03T01:02:47.180Z,137.70
2022-12-03T01:04:51.714Z,152.20
2022-12-03T01:06:56.145Z,124.80
2022-12-03T01:08:59.874Z,142.18
2022-12-03T01:11:04.150Z,147.65
2022-12-03T01:13:08.307Z,115.22
2022-12-03T01:15:12.963Z,135.73
2022-12-03T01:17:17.252Z,141.70
2022-12-03T01:19:22.787Z,141.65
2022-12-03T01:21:26.976Z,102.28
2022-12-03T01:23:31.182Z,111.63
2022-12-03T01:25:36.225Z,111.38
2022-12-03T01:27:40.378Z,109.50
2022-12-03T01:29:44.317Z,102.88
2022-12-03T01:32:07.237Z,106.32
2022-12-03T01:34:10.927Z,112.75
2022-12-03T01:36:15.173Z,110.55
2022-12-03T01:38:19.412Z,113.32
2022-12-03T01:40:24.245Z,128.85
2022-12-03T01:42:42.254Z,114.95
2022-12-03T01:44:47.185Z,117.80
2022-12-03T01:46:52.385Z,117.35
2022-12-03T01:48:58.276Z,128.65
2022-12-03T01:51:02.551Z,130.73
2022-12-03T01:53:07.094Z,95.07
2022-12-03T01:55:17.088Z,125.60
2022-12-03T01:57:36.005Z,133.77
2022-12-03T01:59:41.746Z,111.63
2022-12-03T02:01:46.054Z,108.40
2022-12-03T02:03:49.791Z,128.05
2022-12-03T02:05:55.207Z,76.47
2022-12-03T02:08:00.819Z,119.40
2022-12-03T02:10:06.004Z,118.50
2022-12-03T02:12:10.173Z,119.55
2022-12-03T02:14:21.231Z,104.97
2022-12-03T02:16:25.607Z,103.90
2022-12-03T02:18:29.918Z,123.40
2022-12-03T02:20:38.928Z,129.73
2022-12-03T02:22:54.399Z,125.20
2022-12-03T02:25:06.840Z,151.23
2022-12-03T02:27:11.060Z,131.02
2022-12-03T02:29:15.333Z,114.80
2022-12-03T02:31:19.644Z,114.22
2022-12-03T02:33:23.307Z,125.28
2022-12-03T02:35:32.515Z,118.70
2022-12-03T02:37:38.508Z,131.10
2022-12-03T02:39:45.237Z,121.45
2022-12-03T02:42:08.517Z,123.07
2022-12-03T02:44:12.504Z,124.20
2022-12-03T02:46:16.250Z,129.70
2022-12-03T02:48:36.593Z,150.25
2022-12-03T02:50:44.832Z,138.55
2022-12-03T02:52:50.191Z,125.70
2022-12-03T02:54:54.809Z,117.47
2022-12-03T02:56:59.251Z,111.50
2022-12-03T02:59:05.504Z,123.00
2022-12-03T03:01:11.694Z,117.93
2022-12-03T03:03:15.879Z,115.45
2022-12-03T03:05:23.790Z,117.82
2022-12-03T03:07:28.160Z,113.50
2022-12-03T03:09:32.046Z,111.25
2022-12-03T03:11:36.270Z,135.82
2022-12-03T03:13:41.520Z,115.38
2022-12-03T03:15:46.311Z,136.43
2022-12-03T03:17:50.637Z,118.00
2022-12-03T03:19:54.834Z,127.70
2022-12-03T03:21:59.292Z,121.55
2022-12-03T03:24:03.499Z,121.95
2022-12-03T03:26:13.218Z,118.13
2022-12-03T03:28:18.753Z,134.55
2022-12-03T03:30:22.906Z,121.75
2022-12-03T03:32:28.795Z,116.80
2022-12-03T03:34:35.202Z,120.50
2022-12-03T03:36:39.253Z,122.50
2022-12-03T03:38:44.034Z,107.30
2022-12-03T03:40:49.110Z,129.75
2022-12-03T03:42:53.891Z,121.70
2022-12-03T03:44:59.222Z,132.77
2022-12-03T03:47:04.082Z,132.20
2022-12-03T03:49:09.220Z,132.13
2022-12-03T03:51:14.810Z,133.82
2022-12-03T03:53:19.883Z,118.82
2022-12-03T03:55:24.952Z,120.63
2022-12-03T03:57:29.451Z,148.27
2022-12-03T03:59:33.851Z,147.38
2022-12-03T04:01:39.863Z,147.27
2022-12-03T04:03:44.965Z,134.80
2022-12-03T04:05:53.100Z,146.77
2022-12-03T04:07:57.781Z,131.00
2022-12-03T04:10:02.819Z,140.98
2022-12-03T04:12:26.738Z,120.75
2022-12-03T04:14:31.141Z,116.72
2022-12-03T04:16:36.161Z,142.30
2022-12-03T04:18:46.943Z,138.55
2022-12-03T04:20:51.272Z,117.70
2022-12-03T04:22:55.541Z,96.22
2022-12-03T04:25:20.281Z,114.20
2022-12-03T04:27:43.353Z,119.18
2022-12-03T04:29:47.730Z,97.60
2022-12-03T04:32:11.542Z,129.93
2022-12-03T04:34:33.580Z,127.32
2022-12-03T04:36:38.736Z,125.65
2022-12-03T04:38:43.040Z,126.10
2022-12-03T04:41:06.260Z,118.38
2022-12-03T04:43:10.560Z,119.00
2022-12-03T04:45:15.500Z,104.05
2022-12-03T04:47:21.300Z,116.57
2022-12-03T04:49:25.901Z,125.28
2022-12-03T04:51:30.194Z,127.82
2022-12-03T04:53:36.235Z,119.13
2022-12-03T04:55:40.804Z,110.10
2022-12-03T04:57:45.150Z,124.90
2022-12-03T04:59:50.142Z,105.10
2022-12-03T05:01:55.116Z,111.43
2022-12-03T05:03:59.511Z,123.82
2022-12-03T05:06:04.522Z,122.25
2022-12-03T05:08:09.199Z,123.15
2022-12-03T05:10:13.531Z,113.10
2022-12-03T05:12:17.900Z,144.85
2022-12-03T05:14:22.255Z,131.32
2022-12-03T05:16:26.631Z,134.57
2022-12-03T05:18:31.081Z,124.85
2022-12-03T05:20:51.337Z,146.27
2022-12-03T05:22:57.440Z,127.43
2022-12-03T05:25:02.110Z,131.63
2022-12-03T05:27:07.120Z,124.72
2022-12-03T05:29:10.960Z,138.63
2022-12-03T05:31:16.040Z,131.65
2022-12-03T05:33:21.339Z,132.10
2022-12-03T05:35:26.589Z,154.45
2022-12-03T05:37:31.510Z,141.18
2022-12-03T05:39:36.400Z,129.77
2022-12-03T05:41:59.820Z,131.45
2022-12-03T05:44:04.219Z,136.00
2022-12-03T05:46:08.762Z,135.27
2022-12-03T05:48:16.851Z,135.60
2022-12-03T05:50:22.523Z,140.55
2022-12-03T05:52:27.421Z,135.98
2022-12-03T05:54:33.510Z,132.60
2022-12-03T05:56:37.791Z,136.55
2022-12-03T05:58:42.109Z,131.65
2022-12-03T06:00:45.911Z,150.15
2022-12-03T06:02:50.526Z,143.15
2022-12-03T06:04:55.414Z,156.68
2022-12-03T06:07:00.150Z,148.90
2022-12-03T06:09:05.141Z,156.95
2022-12-03T06:11:10.251Z,144.90
2022-12-03T06:13:15.279Z,180.88
2022-12-03T06:15:20.324Z,170.88
2022-12-03T06:17:24.690Z,154.02
2022-12-03T06:19:29.653Z,151.20
2022-12-03T06:21:33.978Z,155.40
2022-12-03T06:23:39.520Z,133.20
2022-12-03T06:25:43.820Z,159.82
2022-12-03T06:27:47.870Z,159.82
2022-12-03T06:29:51.650Z,180.15
2022-12-03T06:31:56.071Z,155.90
2022-12-03T06:34:00.350Z,169.50
2022-12-03T06:36:04.673Z,151.57
2022-12-03T06:38:09.001Z,180.52
2022-12-03T06:40:14.086Z,162.75
2022-12-03T06:42:17.920Z,163.52
2022-12-03T06:44:22.261Z,169.70
2022-12-03T06:46:26.703Z,188.95
2022-12-03T06:48:31.831Z,187.18
2022-12-03T06:50:36.200Z,188.27
2022-12-03T06:52:40.495Z,180.85
2022-12-03T06:54:44.204Z,149.52
2022-12-03T06:56:48.722Z,180.15
2022-12-03T06:58:53.781Z,146.57
2022-12-03T07:00:57.019Z,163.43
2022-12-03T07:03:01.378Z,168.40
2022-12-03T07:05:06.172Z,182.30
2022-12-03T07:07:11.231Z,176.63
2022-12-03T07:09:18.680Z,196.25
2022-12-03T07:11:35.812Z,162.43
2022-12-03T07:13:40.750Z,179.27
2022-12-03T07:15:45.779Z,187.18
2022-12-03T07:17:50.752Z,173.65
2022-12-03T07:19:55.204Z,184.15
2022-12-03T07:22:00.156Z,167.75
2022-12-03T07:24:04.481Z,165.45
2022-12-03T07:26:09.470Z,196.82
2022-12-03T07:28:14.139Z,199.13
2022-12-03T07:30:18.972Z,190.73
2022-12-03T07:32:23.972Z,203.18
2022-12-03T07:34:28.957Z,192.07
2022-12-03T07:36:33.030Z,184.52
2022-12-03T07:38:38.562Z,188.48
2022-12-03T07:40:42.569Z,187.63
2022-12-03T07:42:47.340Z,223.57
2022-12-03T07:44:52.634Z,221.30
2022-12-03T07:46:56.897Z,208.05
2022-12-03T07:49:01.821Z,223.13
2022-12-03T07:51:06.173Z,202.20
2022-12-03T07:53:10.511Z,219.52
2022-12-03T07:55:15.250Z,201.73
2022-12-03T07:57:19.524Z,221.23
2022-12-03T07:59:24.200Z,219.82
2022-12-03T08:01:29.360Z,207.82
2022-12-03T08:03:33.273Z,216.63
2022-12-03T08:05:37.681Z,237.15
2022-12-03T08:07:42.941Z,218.65
2022-12-03T08:09:47.431Z,201.05
2022-12-03T08:11:52.631Z,199.55
2022-12-03T08:13:57.169Z,201.98
2022-12-03T08:16:09.498Z,206.75
2022-12-03T08:18:18.820Z,220.18
2022-12-03T08:20:29.131Z,216.05
2022-12-03T08:22:33.511Z,210.25
2022-12-03T08:24:38.111Z,211.60
2022-12-03T08:26:42.001Z,205.40
2022-12-03T08:28:47.120Z,192.27
2022-12-03T08:31:24.773Z,220.80
2022-12-03T08:33:37.071Z,173.18
2022-12-03T08:35:43.769Z,190.50
2022-12-03T08:37:48.170Z,197.57
2022-12-03T08:39:56.890Z,184.77
2022-12-03T08:42:47.311Z,188.85
2022-12-03T08:44:52.651Z,180.05
2022-12-03T08:47:13.017Z,186.52
2022-12-03T08:49:20.060Z,183.10
2022-12-03T08:51:29.151Z,184.70
2022-12-03T08:54:08.109Z,191.40
2022-12-03T08:56:28.129Z,193.85
2022-12-03T08:58:46.942Z,169.15
2022-12-03T09:01:13.635Z,170.07
2022-12-03T09:03:21.570Z,191.40
2022-12-03T17:31:42.392Z,134.10
2022-12-03T17:33:45.502Z,150.80
2022-12-03T17:35:47.970Z,136.73
2022-12-03T17:37:50.591Z,140.27
2022-12-03T17:39:53.303Z,147.77
2022-12-03T17:41:56.762Z,210.25
2022-12-03T17:43:59.360Z,162.30
2022-12-03T17:46:02.761Z,177.40
2022-12-03T17:48:06.230Z,192.98
2022-12-03T17:50:10.001Z,183.90
2022-12-03T17:52:12.550Z,162.38
2022-12-03T17:54:15.131Z,165.80
2022-12-03T17:56:17.660Z,165.13
2022-12-03T17:58:20.230Z,164.32
2022-12-03T18:00:23.080Z,149.63
2022-12-03T18:02:25.480Z,166.60
2022-12-03T18:04:28.088Z,169.20
2022-12-03T18:06:30.941Z,230.15
2022-12-03T18:08:33.804Z,176.35
2022-12-03T18:10:36.683Z,231.10
2022-12-03T18:12:39.301Z,220.55
2022-12-03T18:14:41.930Z,214.80
2022-12-03T18:16:44.622Z,214.30
2022-12-03T18:18:48.094Z,194.65
2022-12-03T18:20:54.150Z,197.57
2022-12-03T18:22:58.101Z,181.10
2022-12-03T18:25:01.910Z,188.55
2022-12-03T18:27:04.763Z,175.20
2022-12-03T18:29:07.441Z,204.13
2022-12-03T18:31:17.069Z,181.52
2022-12-03T18:33:19.671Z,195.00
2022-12-03T18:35:22.819Z,179.75
2022-12-03T18:37:30.349Z,159.68
2022-12-03T18:39:37.651Z,162.80
2022-12-03T18:41:40.281Z,153.57
2022-12-03T18:43:43.562Z,164.98
2022-12-03T18:45:46.299Z,170.50
2022-12-03T18:47:49.048Z,169.57
2022-12-03T18:49:52.066Z,153.95
2022-12-03T18:51:59.341Z,162.60
2022-12-03T18:55:36.922Z,155.45
2022-12-03T18:57:39.541Z,167.85
2022-12-03T18:59:42.260Z,158.98
2022-12-03T19:01:45.419Z,155.32
2022-12-03T19:03:49.103Z,165.75
2022-12-03T19:05:51.711Z,141.60
2022-12-03T19:07:56.232Z,147.75
2022-12-03T19:09:59.480Z,138.88
2022-12-03T19:12:02.350Z,151.45
2022-12-03T19:14:04.940Z,150.18
2022-12-03T19:16:10.267Z,148.35
2022-12-03T19:18:12.814Z,151.68
2022-12-03T19:20:15.849Z,151.73
2022-12-03T19:22:18.800Z,149.48
2022-12-03T19:24:25.515Z,170.27
2022-12-03T19:26:28.670Z,165.88
2022-12-03T19:28:31.846Z,160.52
2022-12-03T19:30:34.620Z,168.93
2022-12-03T19:32:37.540Z,171.13
2022-12-03T19:34:44.053Z,164.45
2022-12-03T19:36:47.887Z,159.80
2022-12-03T19:38:56.922Z,164.77
2022-12-03T19:41:08.691Z,165.98
2022-12-03T19:43:11.339Z,164.02
2022-12-03T19:45:13.812Z,169.60
2022-12-03T19:47:16.441Z,163.32
2022-12-03T19:49:21.359Z,173.20
2022-12-03T19:51:34.573Z,160.43
2022-12-03T19:53:38.731Z,173.57
2022-12-03T19:55:41.499Z,165.80
2022-12-03T19:57:44.192Z,167.80
2022-12-03T19:59:46.891Z,169.00
2022-12-03T20:01:49.426Z,174.20
2022-12-03T20:03:55.429Z,177.05
2022-12-03T20:06:01.149Z,186.32
2022-12-03T20:08:04.433Z,196.68
2022-12-03T20:10:07.720Z,188.57
2022-12-03T20:12:10.290Z,184.38
2022-12-03T20:14:16.350Z,189.65
2022-12-03T20:16:19.452Z,171.10
2022-12-03T20:18:22.481Z,188.40
2022-12-03T20:20:25.620Z,186.70
2022-12-03T20:22:28.542Z,172.98
2022-12-03T20:24:31.309Z,179.93
2022-12-03T20:26:34.151Z,183.35
2022-12-03T20:28:36.860Z,170.98
2022-12-03T20:30:39.353Z,174.93
2022-12-03T20:32:45.525Z,190.85
2022-12-03T20:34:49.179Z,193.02
2022-12-03T20:36:51.620Z,212.98
2022-12-03T20:38:56.572Z,174.15
2022-12-03T20:41:16.713Z,199.18
2022-12-03T20:43:19.381Z,190.70
2022-12-03T20:45:22.146Z,188.32
2022-12-03T20:47:26.831Z,182.10
2022-12-03T20:49:29.560Z,177.90
2022-12-03T20:51:32.213Z,187.98
2022-12-03T20:53:35.633Z,180.25
2022-12-03T20:55:38.159Z,186.02
2022-12-03T20:57:40.991Z,198.25
2022-12-03T20:59:43.460Z,193.13
2022-12-03T21:01:46.381Z,197.45
2022-12-03T21:03:50.370Z,199.15
2022-12-03T21:05:59.711Z,197.40
2022-12-03T21:08:02.232Z,189.32
2022-12-03T21:10:05.311Z,208.95
2022-12-03T21:12:08.310Z,181.02
2022-12-03T21:14:11.708Z,173.90
2022-12-03T21:16:17.953Z,177.77
2022-12-03T21:18:20.981Z,179.00
2022-12-03T21:20:23.660Z,188.27
2022-12-03T21:22:26.410Z,205.50
2022-12-03T21:24:29.331Z,210.05
2022-12-03T21:26:33.322Z,212.60
2022-12-03T21:28:36.292Z,186.18
2022-12-03T21:30:40.749Z,219.27
2022-12-03T21:32:43.731Z,206.20
2022-12-03T21:34:46.420Z,189.77
2022-12-03T21:36:49.386Z,176.43
2022-12-03T21:38:52.240Z,187.13
2022-12-03T21:40:55.467Z,168.13
2022-12-03T21:42:58.091Z,180.98
2022-12-03T21:45:00.572Z,172.82
2022-12-03T21:47:09.833Z,171.70
2022-12-03T21:49:17.401Z,183.20
2022-12-03T21:51:20.992Z,159.05
2022-12-03T21:53:23.731Z,179.98
2022-12-03T21:55:26.451Z,156.80
2022-12-03T21:59:07.131Z,159.00
2022-12-03T22:01:20.442Z,173.98
2022-12-03T22:03:23.171Z,196.80
2022-12-03T22:05:25.773Z,189.07
2022-12-03T22:07:28.340Z,210.27
2022-12-03T22:09:34.230Z,192.45
